createdAt,value
2022-11-06T00:04:34.525Z,3.28
2022-11-06T00:09:37.467Z,2.26
2022-11-06T00:14:40.370Z,2.21
2022-11-06T00:19:44.635Z,2.39
2022-11-06T00:24:49.396Z,2.42
2022-11-06T00:29:52.279Z,2.31
2022-11-06T00:34:56.550Z,2.38
2022-11-06T00:40:00.778Z,2.31
2022-11-06T00:45:03.669Z,2.11
2022-11-06T00:50:09.080Z,2.14
2022-11-06T00:55:12.501Z,2.25
2022-11-06T01:00:18.067Z,2.27
2022-11-06T01:05:22.345Z,2.05
2022-11-06T01:10:25.243Z,2.09
2022-11-06T01:15:28.117Z,2.08
2022-11-06T01:20:32.413Z,2.12
2022-11-06T01:25:35.333Z,2.12
2022-11-06T01:30:38.471Z,2.02
2022-11-06T01:35:47.175Z,2.05
2022-11-06T01:40:50.814Z,2.11
2022-11-06T01:45:55.280Z,2.27
2022-11-06T01:51:00.278Z,2.39
2022-11-06T01:56:06.063Z,2.78
2022-11-06T02:01:09.352Z,2.84
2022-11-06T02:06:14.190Z,2.89
2022-11-06T02:11:17.057Z,2.54
2022-11-06T02:16:30.901Z,2.20
2022-11-06T02:21:55.707Z,2.70
2022-11-06T02:27:10.391Z,3.19
2022-11-06T02:32:19.790Z,3.14
2022-11-06T02:37:29.177Z,2.94
2022-11-06T02:42:38.361Z,2.28
2022-11-06T02:47:44.253Z,2.19
2022-11-06T02:52:53.262Z,2.26
2022-11-06T02:58:01.566Z,2.67
2022-11-06T03:03:11.582Z,2.83
2022-11-06T03:08:21.679Z,2.97
2022-11-06T03:13:33.718Z,2.97
2022-11-06T03:18:43.210Z,2.98
2022-11-06T03:23:53.701Z,2.98
2022-11-06T03:29:02.893Z,2.97
2022-11-06T03:34:11.690Z,2.91
2022-11-06T03:39:20.589Z,3.00
2022-11-06T03:44:29.522Z,2.80
2022-11-06T03:49:36.393Z,2.69
2022-11-06T03:54:43.352Z,2.79
2022-11-06T03:59:52.591Z,2.81
2022-11-06T04:04:59.961Z,2.80
2022-11-06T04:10:39.468Z,2.93
2022-11-06T04:15:49.026Z,2.86
2022-11-06T04:21:18.559Z,2.72
2022-11-06T04:32:07.942Z,2.64
2022-11-06T04:37:16.136Z,2.51
2022-11-06T04:42:26.943Z,2.15
2022-11-06T04:47:31.366Z,2.08
2022-11-06T04:52:36.376Z,2.00
2022-11-06T04:57:39.295Z,1.99
2022-11-06T05:02:43.569Z,2.03
2022-11-06T05:07:46.458Z,2.01
2022-11-06T05:12:49.375Z,2.05
2022-11-06T05:17:53.653Z,2.19
2022-11-06T05:23:00.668Z,2.26
2022-11-06T05:28:07.063Z,2.32
2022-11-06T05:33:11.347Z,2.18
2022-11-06T05:38:14.636Z,1.72
2022-11-06T05:43:17.761Z,1.72
2022-11-06T05:48:22.258Z,1.64
2022-11-06T05:53:25.154Z,1.62
2022-11-06T05:58:28.715Z,1.51
2022-11-06T06:03:33.055Z,1.62
2022-11-06T06:08:36.212Z,1.43
2022-11-06T06:13:39.178Z,1.48
2022-11-06T06:18:43.455Z,1.48
2022-11-06T06:23:46.592Z,1.36
2022-11-06T06:28:50.208Z,1.44
2022-11-06T06:33:54.748Z,1.47
2022-11-06T06:38:57.888Z,1.38
2022-11-06T06:44:00.965Z,1.37
2022-11-06T06:49:05.459Z,1.46
2022-11-06T06:54:08.618Z,1.39
2022-11-06T06:59:11.523Z,1.32
2022-11-06T07:04:16.739Z,1.36
2022-11-06T07:09:19.789Z,1.43
2022-11-06T07:14:22.732Z,1.35
2022-11-06T07:19:27.573Z,1.46
2022-11-06T07:24:30.696Z,1.51
2022-11-06T07:29:33.624Z,1.74
2022-11-06T07:34:38.928Z,2.48
2022-11-06T07:39:41.973Z,3.18
2022-11-06T07:44:44.975Z,3.61
2022-11-06T07:49:51.113Z,3.63
2022-11-06T07:54:54.653Z,4.08
2022-11-06T07:59:57.598Z,4.25
2022-11-06T08:05:02.057Z,4.56
2022-11-06T08:10:05.959Z,4.74
2022-11-06T08:15:09.520Z,4.92
2022-11-06T08:20:13.959Z,5.28
2022-11-06T08:25:16.965Z,5.62
2022-11-06T08:30:19.890Z,6.07
2022-11-06T08:35:24.175Z,5.77
2022-11-06T08:40:30.882Z,6.52
2022-11-06T08:45:37.184Z,6.95
2022-11-06T08:50:42.475Z,6.46
2022-11-06T08:55:45.619Z,6.86
2022-11-06T09:00:48.667Z,7.22
2022-11-06T09:05:53.017Z,7.53
2022-11-06T09:10:58.627Z,7.48
2022-11-06T09:16:02.210Z,7.95
2022-11-06T09:21:06.835Z,8.02
2022-11-06T09:26:09.971Z,7.91
2022-11-06T09:31:12.950Z,8.17
2022-11-06T09:36:17.209Z,8.55
2022-11-06T09:41:24.873Z,8.25
2022-11-06T09:46:31.519Z,8.42
2022-11-06T09:51:40.325Z,8.36
2022-11-06T09:56:46.648Z,8.32
2022-11-06T10:01:54.476Z,8.45
2022-11-06T10:06:59.031Z,8.80
2022-11-06T10:12:10.586Z,8.52
2022-11-06T10:17:24.292Z,8.96
2022-11-06T10:22:37.736Z,9.10
2022-11-06T10:27:42.905Z,9.05
2022-11-06T10:33:05.685Z,9.26
2022-11-06T10:38:15.433Z,9.23
2022-11-06T10:43:31.866Z,9.01
2022-11-06T10:48:41.525Z,9.44
2022-11-06T10:53:56.428Z,9.32
2022-11-06T10:58:59.600Z,9.55
2022-11-06T11:04:02.610Z,9.46
2022-11-06T11:09:28.534Z,9.86
2022-11-06T11:14:33.152Z,9.33
2022-11-06T11:19:37.414Z,9.75
2022-11-06T11:25:00.621Z,9.63
2022-11-06T11:30:05.597Z,9.83
2022-11-06T11:35:12.974Z,9.43
2022-11-06T11:40:37.498Z,9.86
2022-11-06T11:45:40.457Z,9.97
2022-11-06T11:50:43.515Z,9.94
2022-11-06T11:55:50.418Z,10.06
2022-11-06T12:00:56.865Z,10.00
2022-11-06T12:06:10.305Z,10.21
2022-11-06T12:11:20.728Z,10.22
2022-11-06T12:16:23.899Z,9.65
2022-11-06T12:21:31.166Z,9.78
2022-11-06T12:26:39.894Z,10.10
2022-11-06T12:31:48.901Z,10.00
2022-11-06T12:37:12.678Z,9.60
2022-11-06T12:42:18.775Z,9.77
2022-11-06T12:47:30.467Z,9.79
2022-11-06T12:52:55.389Z,10.06
2022-11-06T12:58:15.196Z,10.27
2022-11-06T13:03:50.251Z,10.04
2022-11-06T13:08:59.687Z,9.64
2022-11-06T13:14:20.644Z,9.61
2022-11-06T13:19:31.642Z,9.36
2022-11-06T13:24:41.597Z,9.35
2022-11-06T13:29:46.724Z,9.29
2022-11-06T13:34:53.588Z,9.24
2022-11-06T13:40:02.868Z,9.05
2022-11-06T13:45:09.542Z,8.65
2022-11-06T13:50:20.838Z,8.68
2022-11-06T13:55:34.417Z,8.46
2022-11-06T14:00:49.318Z,8.27
2022-11-06T14:05:58.775Z,7.97
2022-11-06T14:11:06.701Z,8.00
2022-11-06T14:16:29.972Z,7.84
2022-11-06T14:21:51.910Z,7.91
2022-11-06T14:26:54.871Z,7.68
2022-11-06T14:32:03.258Z,7.60
2022-11-06T14:37:39.450Z,7.52
2022-11-06T14:42:45.677Z,7.50
2022-11-06T14:47:56.555Z,7.56
2022-11-06T14:53:02.573Z,7.21
2022-11-06T14:58:20.123Z,7.07
2022-11-06T15:03:33.538Z,7.16
2022-11-06T15:09:13.012Z,7.19
2022-11-06T15:14:53.709Z,6.92
2022-11-06T15:20:08.975Z,6.66
2022-11-06T15:25:22.822Z,6.35
2022-11-06T15:30:27.130Z,6.36
2022-11-06T15:35:36.757Z,6.39
2022-11-06T15:40:41.829Z,6.24
2022-11-06T15:45:44.884Z,6.34
2022-11-06T15:50:49.172Z,5.96
2022-11-06T15:55:56.801Z,5.88
2022-11-06T16:01:00.979Z,5.71
2022-11-06T16:06:06.105Z,5.51
2022-11-06T16:11:13.594Z,5.50
2022-11-06T16:16:35.936Z,5.37
2022-11-06T16:21:40.345Z,5.25
2022-11-06T16:26:48.162Z,5.04
2022-11-06T16:32:01.101Z,5.01
2022-11-06T16:37:07.177Z,4.91
2022-11-06T16:42:27.197Z,4.76
2022-11-06T16:47:30.600Z,4.81
2022-11-06T16:52:38.862Z,4.73
2022-11-06T16:57:45.988Z,4.49
2022-11-06T17:02:51.481Z,4.52
2022-11-06T17:08:08.082Z,4.46
2022-11-06T17:13:14.769Z,4.26
2022-11-06T17:18:20.481Z,4.39
2022-11-06T17:23:27.458Z,4.29
2022-11-06T17:28:30.553Z,4.09
2022-11-06T17:33:33.506Z,4.03
2022-11-06T17:43:41.068Z,3.95
2022-11-06T17:48:43.996Z,3.98
2022-11-06T17:53:49.464Z,4.03
2022-11-06T17:58:52.818Z,3.93
2022-11-06T18:03:55.854Z,3.79
2022-11-06T18:09:01.238Z,3.63
2022-11-06T18:14:04.939Z,3.75
2022-11-06T18:19:09.405Z,3.61
2022-11-06T18:24:13.836Z,3.57
2022-11-06T18:29:16.762Z,3.31
2022-11-06T18:34:21.308Z,3.30
2022-11-06T18:39:25.885Z,3.17
2022-11-06T18:44:28.904Z,3.22
2022-11-06T18:49:31.871Z,3.45
2022-11-06T18:54:36.266Z,3.71
2022-11-06T18:59:39.171Z,3.48
2022-11-06T19:04:42.101Z,3.29
2022-11-06T19:09:46.423Z,3.25
2022-11-06T19:14:49.376Z,3.04
2022-11-06T19:19:52.393Z,3.03
2022-11-06T19:24:56.702Z,3.06
2022-11-06T19:29:59.659Z,2.95
2022-11-06T19:35:02.603Z,3.03
2022-11-06T19:40:08.738Z,2.72
2022-11-06T19:45:12.070Z,2.98
2022-11-06T19:50:15.032Z,2.90
2022-11-06T19:55:26.311Z,2.98
2022-11-06T20:00:30.599Z,3.15
2022-11-06T20:05:33.547Z,3.04
2022-11-06T20:10:38.252Z,2.85
2022-11-06T20:15:41.263Z,2.89
2022-11-06T20:20:44.173Z,2.80
2022-11-06T20:25:53.065Z,2.88
2022-11-06T20:30:56.155Z,2.90
2022-11-06T20:35:59.130Z,2.92
2022-11-06T20:41:03.425Z,2.96
2022-11-06T20:46:06.757Z,3.22
2022-11-06T20:51:11.975Z,3.29
2022-11-06T20:56:18.367Z,3.22
2022-11-06T21:01:23.662Z,3.16
2022-11-06T21:06:27.764Z,3.18
2022-11-06T21:11:32.133Z,2.89
2022-11-06T21:16:37.283Z,3.10
2022-11-06T21:21:40.850Z,3.02
2022-11-06T21:26:45.196Z,3.09
2022-11-06T21:31:49.285Z,3.47
2022-11-06T21:36:52.412Z,3.19
2022-11-06T21:41:56.732Z,3.72
2022-11-06T21:46:59.741Z,3.51
2022-11-06T21:52:17.655Z,3.69
2022-11-06T21:57:23.181Z,4.63
2022-11-06T22:02:26.250Z,4.08
2022-11-06T22:07:29.309Z,3.85
2022-11-06T22:12:35.408Z,3.80
2022-11-06T22:17:38.311Z,3.91
2022-11-06T22:22:41.304Z,3.84
2022-11-06T22:27:45.688Z,3.73
2022-11-06T22:32:48.656Z,4.53
2022-11-06T22:37:51.580Z,5.27
2022-11-06T22:42:55.859Z,5.04
2022-11-06T22:47:59.163Z,4.72
2022-11-06T22:53:02.131Z,4.43
2022-11-06T22:58:06.505Z,4.42
2022-11-06T23:03:09.463Z,4.47
2022-11-06T23:08:12.440Z,4.69
2022-11-06T23:13:16.821Z,4.95
2022-11-06T23:18:19.741Z,4.67
2022-11-06T23:23:22.667Z,4.47
2022-11-06T23:28:26.994Z,4.68
2022-11-06T23:33:31.653Z,4.89
2022-11-06T23:38:34.580Z,5.00
2022-11-06T23:43:38.860Z,5.41
2022-11-06T23:48:41.776Z,5.80
2022-11-06T23:53:44.788Z,5.77
2022-11-06T23:58:49.123Z,5.68
